Scf Explorer — WDE2863 — position and weather

sailwx.info

Track history (hours):
 
Tides and Currents Weather Stations Pressure Air Temp Water Temp Dewpoint Dewpoint Depression Visibility Wind Speed Wind Dir Waves Ship Positions

Scf Explorer

Owner: SCF Waxler Marine LLC, St Rose, LA. More information available from US FCC via Universal Licensing System and Coast Guard Vessel Documentation Center.

Last reported at 2014-Nov-26 09:33 UTC. Time now 2014-Nov-26 10:06 UTC.
Position N 29°32' W 094°54'.

Length 35 m; draft 2.3 m.

Type: Ship (hazmat cat B). MMSI: 367330620.

Date/timePositionNaut miles runAvg speedWind from/ knotsBaromVisibWave heightAir tempDewpointWater temp
2014-Nov-26 09:33N 29°32' W 094°54'6 6.4
2014-Nov-26 08:33N 29°38' W 094°58'6 6.0
2014-Nov-26 07:33N 29°43' W 095°01'5 4.9
2014-Nov-26 06:33N 29°44' W 095°07'5 0.6
2014-Nov-25 22:07N 29°44' W 095°12'0 0.3
2014-Nov-25 21:17N 29°44' W 095°12'0 0.0
2014-Nov-25 20:31N 29°44' W 095°12'0 0.0
2014-Nov-25 19:33N 29°44' W 095°12'0 0.0
2014-Nov-25 13:21N 29°44' W 095°12'3 0.2
2014-Nov-24 19:32N 29°44' W 095°09'6 4.2
2014-Nov-24 18:13N 29°47' W 095°04'0 0.4
2014-Nov-24 17:33N 29°47' W 095°04'2 0.0
2014-Nov-22 21:24N 29°46' W 095°06'0 0.0
2014-Nov-22 20:33N 29°46' W 095°06'2 1.8
2014-Nov-22 19:17N 29°47' W 095°04'0 0.0
2014-Nov-22 18:33N 29°47' W 095°04'0 0.1
2014-Nov-22 17:33N 29°47' W 095°04'1 0.8
2014-Nov-22 16:32N 29°47' W 095°05'0 0.0
2014-Nov-22 15:33N 29°47' W 095°05'1 0.9
2014-Nov-22 14:33N 29°46' W 095°05'5 5.2
2014-Nov-22 13:33N 29°42' W 095°01'9 6.7
2014-Nov-22 12:16N 29°35' W 094°56'12 0.9
2014-Nov-21 22:24N 29°22' W 094°53'4 0.2
2014-Nov-20 23:11N 29°24' W 094°49'4 6.5
2014-Nov-20 22:33N 29°27' W 094°51'7 7.1
2014-Nov-20 21:33N 29°33' W 094°55'7 7.3
2014-Nov-20 20:33N 29°40' W 094°59'6 6.2
2014-Nov-20 19:33N 29°44' W 095°04'5 4.9
2014-Nov-20 18:33N 29°44' W 095°09'3 0.7
2014-Nov-20 14:29N 29°44' W 095°12'0 0.0
2014-Nov-19 14:13N 29°44' W 095°12'0 0.0
2014-Nov-19 13:32N 29°44' W 095°12'1 1.2
2014-Nov-19 12:21N 29°45' W 095°11'7 0.7
2014-Nov-19 03:08N 29°47' W 095°04'0 0.0
2014-Nov-18 23:32N 29°47' W 095°04'0 0.0
2014-Nov-18 22:33N 29°47' W 095°04'0 0.0
2014-Nov-18 21:31N 29°47' W 095°04'0 0.0
2014-Nov-18 20:32N 29°47' W 095°04'0 0.0
2014-Nov-18 19:33N 29°47' W 095°04'0 0.0
2014-Nov-18 18:31N 29°47' W 095°04'0 0.0
2014-Nov-18 17:32N 29°47' W 095°04'0 0.1
2014-Nov-18 16:33N 29°47' W 095°04'0 0.0
2014-Nov-18 15:33N 29°47' W 095°04'0 0.0
2014-Nov-18 14:33N 29°47' W 095°04'0 0.0
2014-Nov-18 13:33N 29°47' W 095°04'0 0.0
2014-Nov-18 12:33N 29°47' W 095°04'0 0.2
2014-Nov-18 11:31N 29°47' W 095°04'1 0.7
2014-Nov-18 10:32N 29°47' W 095°05'5 4.7
2014-Nov-18 09:33N 29°43' W 095°01'7 7.2
2014-Nov-18 08:33N 29°37' W 094°57'  
Track history (hours):
 
Tides and Currents Weather Stations Pressure Air Temp Water Temp Dewpoint Dewpoint Depression Visibility Wind Speed Wind Dir Waves Ship Positions

Scf Explorer

Owner: SCF Waxler Marine LLC, St Rose, LA. More information available from US FCC via Universal Licensing System and Coast Guard Vessel Documentation Center.

Last reported at 2014-Nov-26 09:33 UTC. Time now 2014-Nov-26 10:06 UTC.
Position N 29°32' W 094°54'.

Length 35 m; draft 2.3 m.

Type: Ship (hazmat cat B). MMSI: 367330620.

Date/timePositionNaut miles runAvg speedWind from/ knotsBaromVisibWave heightAir tempDewpointWater temp
2014-Nov-26 09:33N 29°32' W 094°54'6 6.4
2014-Nov-26 08:33N 29°38' W 094°58'6 6.0
2014-Nov-26 07:33N 29°43' W 095°01'5 4.9
2014-Nov-26 06:33N 29°44' W 095°07'5 0.6
2014-Nov-25 22:07N 29°44' W 095°12'0 0.3
2014-Nov-25 21:17N 29°44' W 095°12'0 0.0
2014-Nov-25 20:31N 29°44' W 095°12'0 0.0
2014-Nov-25 19:33N 29°44' W 095°12'0 0.0
2014-Nov-25 13:21N 29°44' W 095°12'3 0.2
2014-Nov-24 19:32N 29°44' W 095°09'6 4.2
2014-Nov-24 18:13N 29°47' W 095°04'0 0.4
2014-Nov-24 17:33N 29°47' W 095°04'2 0.0
2014-Nov-22 21:24N 29°46' W 095°06'0 0.0
2014-Nov-22 20:33N 29°46' W 095°06'2 1.8
2014-Nov-22 19:17N 29°47' W 095°04'0 0.0
2014-Nov-22 18:33N 29°47' W 095°04'0 0.1
2014-Nov-22 17:33N 29°47' W 095°04'1 0.8
2014-Nov-22 16:32N 29°47' W 095°05'0 0.0
2014-Nov-22 15:33N 29°47' W 095°05'1 0.9
2014-Nov-22 14:33N 29°46' W 095°05'5 5.2
2014-Nov-22 13:33N 29°42' W 095°01'9 6.7
2014-Nov-22 12:16N 29°35' W 094°56'12 0.9
2014-Nov-21 22:24N 29°22' W 094°53'4 0.2
2014-Nov-20 23:11N 29°24' W 094°49'4 6.5
2014-Nov-20 22:33N 29°27' W 094°51'7 7.1
2014-Nov-20 21:33N 29°33' W 094°55'7 7.3
2014-Nov-20 20:33N 29°40' W 094°59'6 6.2
2014-Nov-20 19:33N 29°44' W 095°04'5 4.9
2014-Nov-20 18:33N 29°44' W 095°09'3 0.7
2014-Nov-20 14:29N 29°44' W 095°12'0 0.0
2014-Nov-19 14:13N 29°44' W 095°12'0 0.0
2014-Nov-19 13:32N 29°44' W 095°12'1 1.2
2014-Nov-19 12:21N 29°45' W 095°11'7 0.7
2014-Nov-19 03:08N 29°47' W 095°04'0 0.0
2014-Nov-18 23:32N 29°47' W 095°04'0 0.0
2014-Nov-18 22:33N 29°47' W 095°04'0 0.0
2014-Nov-18 21:31N 29°47' W 095°04'0 0.0
2014-Nov-18 20:32N 29°47' W 095°04'0 0.0
2014-Nov-18 19:33N 29°47' W 095°04'0 0.0
2014-Nov-18 18:31N 29°47' W 095°04'0 0.0
2014-Nov-18 17:32N 29°47' W 095°04'0 0.1
2014-Nov-18 16:33N 29°47' W 095°04'0 0.0
2014-Nov-18 15:33N 29°47' W 095°04'0 0.0
2014-Nov-18 14:33N 29°47' W 095°04'0 0.0
2014-Nov-18 13:33N 29°47' W 095°04'0 0.0
2014-Nov-18 12:33N 29°47' W 095°04'0 0.2
2014-Nov-18 11:31N 29°47' W 095°04'1 0.7
2014-Nov-18 10:32N 29°47' W 095°05'5 4.7
2014-Nov-18 09:33N 29°43' W 095°01'7 7.2
2014-Nov-18 08:33N 29°37' W 094°57'  

Dump ship's entire track history